Time;durP1;ratioP1;P1;durP2;ratioP2;P2;SDS_P1;SDS_P2;PMS_P1;PMS_P2;Temp;Humidity;BMP_temperature;BMP_pressure;BME280_temperature;BME280_humidity;BME280_pressure;Samples;Min_cycle;Max_cycle;Signal;HPM_P1;HPM_P2
2020/12/05 00:02:18;;;;;;;47.88;24.25;;;1.70;99.90;;;;;;4997317;28;20022;-72
2020/12/05 00:04:44;;;;;;;46.15;22.23;;;1.70;99.90;;;;;;4998936;28;20022;-72
2020/12/05 00:07:10;;;;;;;49.05;24.08;;;1.70;99.90;;;;;;4998861;28;20097;-72
2020/12/05 00:09:36;;;;;;;53.75;23.95;;;1.70;99.90;;;;;;4996055;28;20395;-72
2020/12/05 00:12:06;;;;;;;51.25;23.20;;;1.70;99.90;;;;;;4998480;28;20545;-72
2020/12/05 00:14:32;;;;;;;46.15;22.52;;;1.70;99.90;;;;;;4998376;28;20117;-72
2020/12/05 00:16:58;;;;;;;48.88;23.90;;;1.70;99.90;;;;;;4998425;28;20125;-72
2020/12/05 00:19:24;;;;;;;52.75;25.20;;;1.70;99.90;;;;;;4998545;28;20743;-72
2020/12/05 00:21:58;;;;;;;61.55;25.77;;;1.60;99.90;;;;;;4997755;28;20025;-72
2020/12/05 00:24:25;;;;;;;47.97;22.80;;;1.50;99.90;;;;;;4998765;28;20036;-72
2020/12/05 00:26:52;;;;;;;47.25;23.50;;;1.40;99.90;;;;;;4998195;28;20048;-72
2020/12/05 00:29:18;;;;;;;51.95;24.60;;;1.40;99.90;;;;;;4997277;28;20069;-72
2020/12/05 00:31:49;;;;;;;51.20;24.67;;;1.40;99.90;;;;;;4997832;28;20125;-72
2020/12/05 00:34:15;;;;;;;52.63;25.02;;;1.40;99.90;;;;;;4998542;28;20628;-73
2020/12/05 00:36:40;;;;;;;54.83;24.65;;;1.30;99.90;;;;;;4998283;28;20048;-72
2020/12/05 00:39:06;;;;;;;49.67;24.90;;;1.40;99.90;;;;;;4997380;28;20095;-72
2020/12/05 00:41:32;;;;;;;49.83;24.38;;;1.30;99.90;;;;;;4998117;28;20040;-72
2020/12/05 00:43:58;;;;;;;52.65;24.67;;;1.30;99.90;;;;;;4998493;28;20021;-73
2020/12/05 00:46:24;;;;;;;60.67;25.15;;;1.40;99.90;;;;;;4997695;28;20022;-72
2020/12/05 00:48:50;;;;;;;49.60;24.85;;;1.40;99.90;;;;;;4996430;28;20417;-73
2020/12/05 00:51:16;;;;;;;55.17;25.52;;;1.40;99.90;;;;;;4995614;28;20033;-72
2020/12/05 00:53:45;;;;;;;49.42;23.60;;;1.30;99.90;;;;;;4996014;28;20782;-73
2020/12/05 00:56:11;;;;;;;48.70;24.02;;;1.40;99.90;;;;;;4997189;28;20204;-73
2020/12/05 00:58:37;;;;;;;56.35;25.20;;;1.30;99.90;;;;;;4997486;28;20040;-73
2020/12/05 01:01:04;;;;;;;53.92;26.35;;;1.40;99.90;;;;;;4996918;28;20088;-73
2020/12/05 01:03:31;;;;;;;52.30;26.33;;;1.40;99.90;;;;;;4997057;28;20037;-73
2020/12/05 01:05:57;;;;;;;55.17;24.75;;;1.40;99.90;;;;;;4997599;28;20577;-73
2020/12/05 01:08:23;;;;;;;53.85;25.98;;;1.40;99.90;;;;;;4996241;28;20114;-72
2020/12/05 01:10:50;;;;;;;57.92;25.35;;;1.50;99.90;;;;;;4997180;28;20658;-73
2020/12/05 01:13:15;;;;;;;57.45;25.27;;;1.50;99.90;;;;;;4998010;28;20042;-73
2020/12/05 01:15:42;;;;;;;57.83;25.63;;;1.50;99.90;;;;;;4997226;28;20049;-73
2020/12/05 01:18:07;;;;;;;53.50;26.00;;;1.50;99.90;;;;;;4997489;28;20461;-73
2020/12/05 01:20:33;;;;;;;54.95;26.27;;;1.50;99.90;;;;;;4997395;28;20038;-73
2020/12/05 01:22:59;;;;;;;51.58;24.63;;;1.50;99.90;;;;;;4997676;28;20037;-73
2020/12/05 01:25:25;;;;;;;53.47;26.60;;;1.50;99.90;;;;;;4996888;28;20052;-73
2020/12/05 01:27:50;;;;;;;58.05;24.77;;;1.50;99.90;;;;;;4996662;28;20045;-73
2020/12/05 01:30:16;;;;;;;54.15;26.23;;;1.50;99.90;;;;;;4997374;28;20037;-73
2020/12/05 01:32:42;;;;;;;55.75;25.52;;;1.50;99.90;;;;;;4996207;28;20111;-72
2020/12/05 01:35:07;;;;;;;52.72;25.17;;;1.50;99.90;;;;;;4995876;28;20037;-72
2020/12/05 01:37:33;;;;;;;54.15;26.15;;;1.50;99.90;;;;;;4997663;28;20459;-72
2020/12/05 01:39:59;;;;;;;56.08;26.08;;;1.40;99.90;;;;;;4979365;28;20037;-72
2020/12/05 01:42:24;;;;;;;57.90;27.10;;;1.40;99.90;;;;;;4997677;28;20543;-72
2020/12/05 01:44:50;;;;;;;56.97;26.20;;;1.40;99.90;;;;;;4995305;28;20061;-72
2020/12/05 01:47:18;;;;;;;58.83;26.75;;;1.30;99.90;;;;;;4998096;28;20033;-73
2020/12/05 01:49:44;;;;;;;54.50;26.63;;;1.20;99.90;;;;;;4995673;28;20021;-73
2020/12/05 01:52:10;;;;;;;54.03;25.85;;;1.20;99.90;;;;;;4979200;28;20045;-72
2020/12/05 01:54:36;;;;;;;55.55;26.60;;;1.20;99.90;;;;;;4997772;28;20038;-73
2020/12/05 01:57:04;;;;;;;57.65;26.73;;;1.10;99.90;;;;;;4995936;28;20048;-72
2020/12/05 01:59:31;;;;;;;55.22;26.20;;;1.10;99.90;;;;;;4996947;28;20037;-72
2020/12/05 02:02:02;;;;;;;51.95;26.08;;;1.10;99.90;;;;;;4995825;28;20600;-72
2020/12/05 02:04:29;;;;;;;59.47;26.30;;;1.00;99.90;;;;;;5000309;28;20054;-72
2020/12/05 02:07:17;;;;;;;55.17;26.52;;;1.00;99.90;;;;;;4999464;28;20560;-72
2020/12/05 02:09:49;;;;;;;51.90;25.38;;;0.90;99.90;;;;;;5000398;28;20037;-72
2020/12/05 02:12:42;;;;;;;59.13;27.48;;;0.80;99.90;;;;;;5001326;28;20044;-72
2020/12/05 02:15:13;;;;;;;59.55;27.65;;;0.80;99.90;;;;;;5000463;28;20048;-73
2020/12/05 02:18:18;;;;;;;60.28;27.42;;;0.90;99.90;;;;;;5001320;28;20049;-71
2020/12/05 02:20:45;;;;;;;57.65;27.27;;;0.80;99.90;;;;;;4987320;28;20041;-72
2020/12/05 02:23:12;;;;;;;59.35;27.48;;;0.90;99.90;;;;;;4982766;28;20034;-72
2020/12/05 02:25:41;;;;;;;61.53;28.20;;;1.00;99.90;;;;;;4999449;28;20057;-71
2020/12/05 02:28:07;;;;;;;58.97;28.33;;;1.00;99.90;;;;;;5000233;28;20044;-72
2020/12/05 02:30:34;;;;;;;59.17;27.75;;;1.10;99.90;;;;;;4999998;28;20037;-72
2020/12/05 02:33:01;;;;;;;62.15;28.45;;;1.10;99.90;;;;;;4999156;28;20050;-72
2020/12/05 02:35:27;;;;;;;57.20;27.60;;;1.20;99.90;;;;;;5000600;28;20037;-71
2020/12/05 02:37:58;;;;;;;61.45;27.92;;;1.20;99.90;;;;;;5000327;28;20704;-72
2020/12/05 02:40:24;;;;;;;60.25;27.25;;;1.20;99.90;;;;;;5000258;28;20038;-72
2020/12/05 02:42:50;;;;;;;56.70;26.30;;;1.20;99.90;;;;;;5000825;28;20495;-71
2020/12/05 02:45:17;;;;;;;58.50;27.60;;;1.30;99.90;;;;;;4998597;28;20038;-72
2020/12/05 02:47:42;;;;;;;55.67;26.73;;;1.30;99.90;;;;;;5000643;28;20033;-72
2020/12/05 02:50:08;;;;;;;56.15;27.05;;;1.30;99.90;;;;;;5000118;28;20061;-72
2020/12/05 02:52:34;;;;;;;60.42;27.98;;;1.30;99.90;;;;;;4999880;28;20036;-74
2020/12/05 02:54:59;;;;;;;54.65;27.25;;;1.40;99.90;;;;;;5000234;28;20034;-72
2020/12/05 02:57:25;;;;;;;56.03;27.02;;;1.30;99.90;;;;;;4999621;28;20081;-72
2020/12/05 02:59:51;;;;;;;59.40;26.67;;;1.30;99.90;;;;;;4997302;28;20041;-72
2020/12/05 03:02:16;;;;;;;59.63;27.50;;;1.30;99.90;;;;;;4999209;28;20029;-72
2020/12/05 03:04:42;;;;;;;54.35;25.63;;;1.20;99.90;;;;;;4999221;28;20037;-72
2020/12/05 03:07:08;;;;;;;54.85;26.23;;;1.30;99.90;;;;;;4999186;28;20033;-72
2020/12/05 03:09:34;;;;;;;56.42;27.13;;;1.30;99.90;;;;;;4998771;28;20040;-72
2020/12/05 03:12:00;;;;;;;53.85;25.35;;;1.30;99.90;;;;;;4999855;28;20038;-72
2020/12/05 03:14:25;;;;;;;54.97;26.23;;;1.30;99.90;;;;;;4998020;28;20140;-72
2020/12/05 03:16:51;;;;;;;56.90;24.58;;;1.20;99.90;;;;;;4998465;28;20046;-72
2020/12/05 03:19:17;;;;;;;57.08;26.50;;;1.20;99.90;;;;;;4999587;28;20045;-71
2020/12/05 03:21:42;;;;;;;53.47;26.35;;;1.20;99.90;;;;;;4999650;28;20042;-72
2020/12/05 03:24:08;;;;;;;55.70;25.90;;;1.20;99.90;;;;;;4998425;28;20041;-72
2020/12/05 03:26:34;;;;;;;52.47;24.77;;;1.20;99.90;;;;;;4997870;28;20034;-72
2020/12/05 03:29:01;;;;;;;58.95;26.45;;;1.20;99.90;;;;;;4997582;28;20026;-73
2020/12/05 03:31:43;;;;;;;60.58;26.92;;;1.30;99.90;;;;;;4999809;28;20034;-73
2020/12/05 03:34:09;;;;;;;56.25;26.50;;;1.30;99.90;;;;;;4997961;28;20042;-73
2020/12/05 03:36:34;;;;;;;54.78;25.55;;;1.40;99.90;;;;;;4999229;28;20033;-73
2020/12/05 03:39:00;;;;;;;60.78;26.23;;;1.30;99.90;;;;;;4998670;28;20736;-73
2020/12/05 03:41:26;;;;;;;52.75;24.83;;;1.30;99.90;;;;;;4998036;28;20037;-70
2020/12/05 03:43:51;;;;;;;54.05;25.13;;;1.30;99.90;;;;;;4997818;28;20041;-70
2020/12/05 03:46:18;;;;;;;52.03;25.73;;;1.30;99.90;;;;;;4998929;28;20881;-69
2020/12/05 03:48:43;;;;;;;51.67;25.63;;;1.40;99.90;;;;;;4999627;28;20033;-70
2020/12/05 03:51:09;;;;;;;50.05;25.20;;;1.40;99.90;;;;;;4997967;28;20033;-69
2020/12/05 03:53:35;;;;;;;55.88;25.83;;;1.40;99.90;;;;;;4998507;28;20085;-70
2020/12/05 03:56:00;;;;;;;52.90;25.50;;;1.50;99.90;;;;;;4997490;28;20029;-70
2020/12/05 03:58:26;;;;;;;57.08;26.10;;;1.50;99.90;;;;;;4998329;28;20080;-70
2020/12/05 04:00:52;;;;;;;51.95;25.60;;;1.50;99.90;;;;;;4998391;28;20077;-70
2020/12/05 04:03:17;;;;;;;56.80;25.65;;;1.50;99.90;;;;;;4998673;28;20037;-70
2020/12/05 04:05:43;;;;;;;57.47;26.00;;;1.60;99.90;;;;;;4998352;28;20022;-70
2020/12/05 04:08:09;;;;;;;51.15;24.67;;;1.60;99.90;;;;;;4996939;28;20026;-70
2020/12/05 04:10:34;;;;;;;50.13;25.30;;;1.60;99.90;;;;;;4998682;28;20394;-71
2020/12/05 04:13:00;;;;;;;49.85;24.50;;;1.60;99.90;;;;;;4998920;28;20046;-71
2020/12/05 04:15:26;;;;;;;52.95;24.40;;;1.70;99.90;;;;;;4998881;28;20057;-70
2020/12/05 04:17:52;;;;;;;48.40;24.42;;;1.80;99.90;;;;;;4996922;28;20034;-71
2020/12/05 04:20:18;;;;;;;50.75;23.67;;;1.80;99.90;;;;;;4996801;28;20116;-71
2020/12/05 04:22:43;;;;;;;48.38;22.27;;;1.90;99.90;;;;;;4999128;28;20129;-71
2020/12/05 04:25:09;;;;;;;47.47;23.17;;;1.90;99.90;;;;;;4997596;28;20161;-71
2020/12/05 04:27:35;;;;;;;48.45;23.45;;;1.90;99.90;;;;;;4997625;28;20026;-71
2020/12/05 04:30:00;;;;;;;44.78;22.08;;;1.90;99.90;;;;;;4998402;28;20045;-71
2020/12/05 04:32:26;;;;;;;45.95;22.48;;;2.00;99.90;;;;;;4997985;28;20037;-71
2020/12/05 04:34:52;;;;;;;44.92;22.35;;;2.10;99.90;;;;;;4998003;28;20056;-71
2020/12/05 04:37:17;;;;;;;46.15;23.13;;;2.00;99.90;;;;;;4998490;28;20038;-71
2020/12/05 04:39:43;;;;;;;45.78;23.13;;;2.00;99.90;;;;;;4997491;28;20048;-71
2020/12/05 04:42:09;;;;;;;50.58;22.17;;;2.00;99.90;;;;;;4997882;28;20038;-77
2020/12/05 04:44:35;;;;;;;44.83;21.85;;;2.00;99.90;;;;;;4997918;28;20030;-74
2020/12/05 04:47:01;;;;;;;52.13;24.08;;;2.00;99.90;;;;;;4997799;28;20064;-71
2020/12/05 04:49:28;;;;;;;46.95;23.55;;;2.00;99.90;;;;;;4997473;28;20038;-73
2020/12/05 04:52:08;;;;;;;43.75;22.42;;;2.00;99.90;;;;;;4997375;28;20727;-73
2020/12/05 04:54:35;;;;;;;47.38;23.13;;;1.90;99.90;;;;;;4997817;28;20048;-73
2020/12/05 04:57:04;;;;;;;50.53;22.75;;;1.90;99.90;;;;;;4996860;28;20115;-73
2020/12/05 04:59:30;;;;;;;46.05;22.85;;;1.90;99.90;;;;;;4997622;28;20517;-72
2020/12/05 05:01:58;;;;;;;41.85;21.25;;;1.80;99.90;;;;;;4997679;28;20486;-73
2020/12/05 05:04:25;;;;;;;46.30;21.92;;;1.80;99.90;;;;;;4997062;28;20030;-73
2020/12/05 05:07:02;;;;;;;47.83;24.00;;;1.80;99.90;;;;;;4997421;28;20034;-72
2020/12/05 05:09:28;;;;;;;42.65;22.25;;;1.70;99.90;;;;;;4997182;28;20087;-73
2020/12/05 05:11:55;;;;;;;47.92;23.67;;;1.70;99.90;;;;;;4997422;28;20069;-72
2020/12/05 05:14:34;;;;;;;58.50;28.58;;;1.50;99.90;;;;;;4997077;28;20558;-71
2020/12/05 05:17:04;;;;;;;45.67;21.48;;;1.50;99.90;;;;;;4997875;28;20052;-73
2020/12/05 05:19:33;;;;;;;53.67;23.70;;;1.40;99.90;;;;;;4997498;28;20144;-73
2020/12/05 05:21:59;;;;;;;50.10;22.50;;;1.30;99.90;;;;;;4978973;28;20807;-73
2020/12/05 05:24:24;;;;;;;41.45;20.25;;;1.30;99.90;;;;;;4997986;28;20140;-73
2020/12/05 05:27:02;;;;;;;48.05;22.58;;;1.20;99.90;;;;;;4996266;28;20030;-73
2020/12/05 05:29:31;;;;;;;46.38;22.15;;;1.10;99.90;;;;;;4997001;28;20139;-73
2020/12/05 05:34:32;;;;;;;48.45;23.02;;;1.00;99.90;;;;;;4996880;28;20056;-73
2020/12/05 05:36:58;;;;;;;51.80;23.38;;;0.90;99.90;;;;;;4995962;28;20038;-73
2020/12/05 05:39:25;;;;;;;49.10;24.08;;;0.90;99.90;;;;;;4999332;28;20935;-73
2020/12/05 05:41:53;;;;;;;45.10;22.42;;;0.90;99.90;;;;;;5001296;28;20041;-73
2020/12/05 05:44:27;;;;;;;46.83;23.52;;;0.90;99.90;;;;;;5001584;28;20044;-75
2020/12/05 05:46:53;;;;;;;59.25;26.85;;;0.90;99.90;;;;;;5001944;28;20034;-73
2020/12/05 05:49:30;;;;;;;52.78;25.40;;;0.90;99.90;;;;;;4999635;28;20525;-73
2020/12/05 05:52:05;;;;;;;50.80;24.00;;;0.80;99.90;;;;;;5001341;28;20562;-73
2020/12/05 05:54:34;;;;;;;46.85;23.08;;;0.80;99.90;;;;;;5001687;28;20887;-72
2020/12/05 05:57:10;;;;;;;44.70;23.38;;;0.80;99.90;;;;;;5001233;28;20129;-71
2020/12/05 05:59:44;;;;;;;44.90;22.23;;;0.80;99.90;;;;;;5001091;28;20038;-73
2020/12/05 06:02:14;;;;;;;54.35;24.92;;;0.70;99.90;;;;;;5000291;28;20138;-73
2020/12/05 06:04:46;;;;;;;48.70;22.70;;;0.70;99.90;;;;;;5001515;28;20041;-74
2020/12/05 06:07:24;;;;;;;45.17;22.85;;;0.70;99.90;;;;;;4972661;28;20034;-75
2020/12/05 06:09:51;;;;;;;49.40;22.52;;;0.70;99.90;;;;;;4997613;28;20148;-74
2020/12/05 06:12:26;;;;;;;43.83;22.95;;;0.70;99.90;;;;;;5001286;28;20819;-74
2020/12/05 06:14:53;;;;;;;49.90;23.60;;;0.70;99.90;;;;;;4999935;28;20818;-74
2020/12/05 06:17:23;;;;;;;45.78;22.20;;;0.80;99.90;;;;;;5000406;28;20069;-74
2020/12/05 06:19:51;;;;;;;48.05;22.95;;;0.80;99.90;;;;;;4995531;28;20078;-74
2020/12/05 06:22:48;;;;;;;51.58;23.65;;;0.80;99.90;;;;;;4996940;28;20113;-74
2020/12/05 06:25:20;;;;;;;48.22;23.13;;;0.70;99.90;;;;;;4989020;28;20136;-74
2020/12/05 06:27:51;;;;;;;53.50;23.42;;;0.80;99.90;;;;;;4997089;28;20449;-74
2020/12/05 06:30:17;;;;;;;46.42;22.55;;;0.80;99.90;;;;;;4996913;28;20870;-74
2020/12/05 06:32:48;;;;;;;47.72;22.70;;;0.70;99.90;;;;;;4997580;28;20038;-74
2020/12/05 06:35:19;;;;;;;51.63;24.27;;;0.70;99.90;;;;;;5001144;28;20445;-74
2020/12/05 06:37:46;;;;;;;52.55;24.15;;;0.70;99.90;;;;;;4992272;28;20133;-74
2020/12/05 06:40:12;;;;;;;50.15;23.85;;;0.70;99.90;;;;;;4996960;28;20501;-73
2020/12/05 06:42:40;;;;;;;51.80;23.80;;;0.70;99.90;;;;;;4996087;28;20130;-72
2020/12/05 06:45:06;;;;;;;53.97;24.20;;;0.80;99.90;;;;;;4999884;28;20034;-73
2020/12/05 06:47:32;;;;;;;46.92;23.00;;;0.90;99.90;;;;;;5000751;28;20128;-74
2020/12/05 06:49:59;;;;;;;49.15;23.02;;;0.90;99.90;;;;;;5000105;28;20119;-74
2020/12/05 06:52:24;;;;;;;54.55;22.60;;;1.00;99.90;;;;;;4995680;28;20038;-74
2020/12/05 06:54:58;;;;;;;48.05;22.63;;;1.20;99.90;;;;;;4997874;28;20508;-74
2020/12/05 06:57:26;;;;;;;45.50;23.10;;;1.20;99.90;;;;;;4999640;28;20769;-72
2020/12/05 07:00:30;;;;;;;46.22;22.50;;;1.30;99.90;;;;;;4999716;28;20149;-72
2020/12/05 07:02:56;;;;;;;40.40;21.70;;;1.30;99.90;;;;;;4997935;28;20081;-74
2020/12/05 07:05:22;;;;;;;45.25;22.60;;;1.40;99.90;;;;;;4993667;28;20042;-74
2020/12/05 07:07:50;;;;;;;51.08;25.23;;;1.40;99.90;;;;;;4991987;28;20773;-74
2020/12/05 07:10:18;;;;;;;42.28;21.08;;;1.40;99.90;;;;;;4998513;28;20091;-77
2020/12/05 07:12:44;;;;;;;46.88;22.85;;;1.50;99.90;;;;;;5000092;28;20203;-74
2020/12/05 07:15:20;;;;;;;42.53;21.25;;;1.50;99.90;;;;;;4999370;28;20795;-74
2020/12/05 07:17:46;;;;;;;43.35;20.42;;;1.50;99.90;;;;;;4991311;28;20094;-74
2020/12/05 07:20:12;;;;;;;40.95;21.63;;;1.40;99.90;;;;;;4994098;28;20054;-74
2020/12/05 07:22:37;;;;;;;43.95;21.42;;;1.40;99.90;;;;;;4986804;28;20069;-74
2020/12/05 07:25:03;;;;;;;46.10;23.08;;;1.40;99.90;;;;;;4999205;28;20801;-72
2020/12/05 07:27:29;;;;;;;40.83;21.00;;;1.40;99.90;;;;;;4993990;28;20457;-72
2020/12/05 07:29:55;;;;;;;44.45;21.67;;;1.40;99.90;;;;;;4996553;28;20118;-74
2020/12/05 07:32:21;;;;;;;45.63;20.27;;;1.30;99.90;;;;;;4998923;28;20497;-74
2020/12/05 07:34:47;;;;;;;44.75;21.23;;;1.30;99.90;;;;;;4997037;28;20084;-71
2020/12/05 07:37:29;;;;;;;43.40;19.67;;;1.30;99.90;;;;;;4999638;28;20040;-73
2020/12/05 07:39:55;;;;;;;39.08;19.83;;;1.40;99.90;;;;;;4997871;28;20100;-74
2020/12/05 07:42:21;;;;;;;41.63;19.83;;;1.40;99.90;;;;;;4997849;28;20541;-74
2020/12/05 07:44:48;;;;;;;45.72;21.15;;;1.50;99.90;;;;;;4998787;28;20192;-74
2020/12/05 07:47:18;;;;;;;43.13;19.88;;;1.50;99.90;;;;;;4998649;28;20029;-74
2020/12/05 07:49:54;;;;;;;40.33;19.08;;;1.60;99.90;;;;;;4998861;28;20831;-76
2020/12/05 07:52:24;;;;;;;41.03;19.40;;;1.50;99.90;;;;;;4998483;28;20104;-74
2020/12/05 07:54:57;;;;;;;37.33;18.58;;;1.60;99.90;;;;;;4998703;28;20034;-74
2020/12/05 07:57:29;;;;;;;39.10;20.15;;;1.70;99.90;;;;;;4985634;28;20133;-74
2020/12/05 08:00:13;;;;;;;40.88;20.13;;;1.70;99.90;;;;;;4996012;28;20037;-74
2020/12/05 08:02:51;;;;;;;40.30;20.15;;;1.70;99.90;;;;;;5024437;28;20038;-74
2020/12/05 08:05:33;;;;;;;39.60;19.23;;;1.80;99.90;;;;;;4998630;28;20462;-74
2020/12/05 08:08:02;;;;;;;37.17;20.10;;;1.90;99.90;;;;;;4998414;28;20104;-74
2020/12/05 08:10:33;;;;;;;37.30;18.95;;;2.00;99.90;;;;;;4988907;28;20489;-74
2020/12/05 08:12:58;;;;;;;38.60;18.90;;;2.00;99.90;;;;;;4998248;28;20057;-74
2020/12/05 08:15:27;;;;;;;38.40;18.52;;;2.10;99.90;;;;;;4993513;28;20805;-74
2020/12/05 08:17:54;;;;;;;34.78;18.42;;;2.20;99.90;;;;;;4995213;28;20041;-72
2020/12/05 08:20:20;;;;;;;33.83;17.05;;;2.40;99.90;;;;;;4997854;28;20034;-72
2020/12/05 08:22:46;;;;;;;36.35;17.35;;;2.60;99.90;;;;;;4996093;28;20490;-73
2020/12/05 08:25:12;;;;;;;36.72;18.10;;;2.70;99.90;;;;;;4976772;28;20042;-74
2020/12/05 08:27:38;;;;;;;34.50;18.08;;;2.90;99.90;;;;;;4993108;28;20124;-74
2020/12/05 08:30:05;;;;;;;31.75;17.27;;;3.00;99.90;;;;;;4995642;28;20030;-74
2020/12/05 08:32:31;;;;;;;34.67;16.92;;;3.10;99.90;;;;;;4985894;28;20038;-74
2020/12/05 08:35:09;;;;;;;32.55;16.35;;;3.10;99.90;;;;;;4996368;28;20084;-72
2020/12/05 08:37:43;;;;;;;33.08;17.40;;;3.10;99.90;;;;;;4996963;28;20034;-73
2020/12/05 08:40:15;;;;;;;32.75;17.55;;;3.10;99.90;;;;;;4996737;28;20854;-73
2020/12/05 08:42:48;;;;;;;37.50;16.88;;;3.10;99.90;;;;;;4998706;28;20133;-72
2020/12/05 08:45:15;;;;;;;31.13;15.32;;;3.10;99.90;;;;;;4993122;28;20041;-72
2020/12/05 08:47:50;;;;;;;39.03;18.65;;;3.10;99.90;;;;;;4993648;28;20052;-74
2020/12/05 08:50:23;;;;;;;;;;;3.20;99.90;;;;;;4990772;28;20443;-74
2020/12/05 08:52:53;;;;;;;28.20;15.27;;;3.30;99.90;;;;;;4997308;28;19913;-72
2020/12/05 08:55:26;;;;;;;29.63;15.60;;;3.40;99.90;;;;;;4997743;28;20029;-72
2020/12/05 08:57:53;;;;;;;28.90;15.02;;;3.70;99.90;;;;;;4997321;28;20029;-75
2020/12/05 09:00:20;;;;;;;26.67;14.73;;;3.90;99.90;;;;;;4997442;28;20123;-72
2020/12/05 09:02:46;;;;;;;28.83;14.80;;;4.10;99.90;;;;;;4988357;28;20028;-72
2020/12/05 09:05:12;;;;;;;27.30;14.82;;;4.30;99.90;;;;;;4992418;28;20038;-73
2020/12/05 09:07:37;;;;;;;29.48;15.05;;;4.60;99.90;;;;;;4992344;28;20938;-72
2020/12/05 09:10:16;;;;;;;27.65;14.18;;;4.80;99.90;;;;;;4995877;28;20018;-72
2020/12/05 09:12:42;;;;;;;27.13;13.95;;;5.00;99.90;;;;;;4996342;28;20729;-72
2020/12/05 09:15:08;;;;;;;27.33;13.57;;;5.20;99.90;;;;;;4997264;28;20038;-72
2020/12/05 09:17:34;;;;;;;24.70;13.38;;;5.30;99.90;;;;;;4995616;28;20057;-72
2020/12/05 09:20:19;;;;;;;27.52;13.68;;;5.30;99.90;;;;;;4989084;28;20573;-73
2020/12/05 09:22:53;;;;;;;23.50;13.30;;;5.40;99.90;;;;;;4989345;28;20557;-73
2020/12/05 09:25:39;;;;;;;25.77;13.70;;;5.50;99.90;;;;;;4997301;28;20033;-74
2020/12/05 09:28:09;;;;;;;31.55;15.65;;;5.90;99.90;;;;;;4996610;28;20026;-72
2020/12/05 09:30:35;;;;;;;27.85;13.45;;;6.20;99.90;;;;;;4996791;28;20034;-74
2020/12/05 09:33:09;;;;;;;23.50;12.25;;;6.30;99.90;;;;;;4996520;28;20030;-76
2020/12/05 09:35:35;;;;;;;22.30;11.65;;;6.40;99.90;;;;;;4997556;28;20042;-76
2020/12/05 09:38:02;;;;;;;24.20;12.45;;;6.40;99.90;;;;;;4989142;28;20026;-76
2020/12/05 09:40:29;;;;;;;29.52;13.23;;;6.50;99.90;;;;;;4996246;28;20032;-76
2020/12/05 09:42:55;;;;;;;26.80;12.40;;;6.50;99.90;;;;;;4997795;28;20050;-76
2020/12/05 09:45:21;;;;;;;22.27;12.13;;;6.60;99.90;;;;;;4997144;28;20045;-76
2020/12/05 09:47:46;;;;;;;22.02;11.57;;;6.70;99.90;;;;;;4997878;28;20026;-76
2020/12/05 09:50:14;;;;;;;22.27;11.27;;;6.70;99.90;;;;;;4987781;28;20781;-77
2020/12/05 09:52:40;;;;;;;23.48;12.38;;;6.70;99.90;;;;;;4995519;28;20038;-77
2020/12/05 09:55:06;;;;;;;21.60;11.57;;;6.90;99.90;;;;;;4994106;28;20041;-76
2020/12/05 09:57:33;;;;;;;25.75;12.68;;;7.00;99.90;;;;;;4991703;28;20168;-77
2020/12/05 09:59:59;;;;;;;24.33;11.98;;;7.00;99.90;;;;;;4996650;28;20037;-75
2020/12/05 10:02:25;;;;;;;23.05;12.77;;;7.10;99.90;;;;;;4996818;28;20105;-76
2020/12/05 10:04:51;;;;;;;20.52;11.15;;;7.10;99.90;;;;;;4995921;28;20040;-76
2020/12/05 10:07:17;;;;;;;22.42;11.43;;;7.20;99.90;;;;;;4997011;28;20341;-76
2020/12/05 10:09:43;;;;;;;22.48;11.57;;;7.30;99.90;;;;;;4995496;28;20112;-76
2020/12/05 10:12:08;;;;;;;20.52;10.85;;;7.50;99.90;;;;;;4997146;28;20099;-76
2020/12/05 10:14:34;;;;;;;22.67;11.70;;;7.90;99.90;;;;;;4997603;28;20530;-76
2020/12/05 10:17:00;;;;;;;23.23;12.25;;;7.90;99.90;;;;;;4988680;28;20030;-75
2020/12/05 10:19:25;;;;;;;23.25;11.70;;;8.10;99.90;;;;;;4997591;28;20660;-76
2020/12/05 10:21:51;;;;;;;20.83;11.48;;;8.00;99.90;;;;;;4996068;28;20073;-77
2020/12/05 10:24:19;;;;;;;25.73;11.93;;;7.80;99.90;;;;;;4998843;28;20025;-76
2020/12/05 10:26:52;;;;;;;20.55;11.98;;;7.80;99.90;;;;;;5001831;28;20037;-76
2020/12/05 10:29:18;;;;;;;25.13;12.30;;;7.80;99.90;;;;;;4992572;28;20068;-77
2020/12/05 10:31:45;;;;;;;21.08;12.52;;;7.80;99.90;;;;;;4993466;28;20038;-78
2020/12/05 10:34:11;;;;;;;22.85;12.27;;;7.80;99.90;;;;;;4992619;28;20112;-78
2020/12/05 10:36:37;;;;;;;22.52;12.40;;;7.80;99.90;;;;;;4999476;28;20379;-77
2020/12/05 10:39:04;;;;;;;25.33;11.95;;;7.70;99.90;;;;;;5000097;28;20038;-77
2020/12/05 10:41:30;;;;;;;22.50;12.55;;;7.60;99.90;;;;;;4991592;28;20026;-76
2020/12/05 10:43:56;;;;;;;28.00;13.30;;;7.40;99.90;;;;;;5000743;28;20506;-76
2020/12/05 10:46:21;;;;;;;22.73;12.45;;;7.40;99.90;;;;;;4999219;28;21015;-76
2020/12/05 10:48:47;;;;;;;29.00;14.20;;;7.30;99.90;;;;;;4992485;28;20038;-75
2020/12/05 10:51:13;;;;;;;24.63;12.65;;;7.30;99.90;;;;;;4992074;28;20034;-75
2020/12/05 10:53:38;;;;;;;25.42;12.60;;;7.30;99.90;;;;;;4999498;28;20034;-77
2020/12/05 10:56:05;;;;;;;24.75;13.30;;;7.30;99.90;;;;;;5000614;28;20553;-77
2020/12/05 10:58:31;;;;;;;26.00;12.60;;;7.60;99.90;;;;;;5000058;28;20072;-77
2020/12/05 11:00:56;;;;;;;23.02;12.90;;;8.00;99.90;;;;;;4996207;28;20046;-77
2020/12/05 11:03:22;;;;;;;26.17;13.55;;;8.20;99.90;;;;;;4999045;28;20064;-77
2020/12/05 11:05:48;;;;;;;24.23;12.98;;;8.60;99.90;;;;;;4991245;28;20041;-78
2020/12/05 11:08:13;;;;;;;27.98;14.55;;;8.80;99.70;;;;;;5000115;28;20200;-77
2020/12/05 11:10:39;;;;;;;26.25;14.07;;;8.60;99.40;;;;;;4999295;28;20037;-75
2020/12/05 11:13:05;;;;;;;29.33;14.52;;;8.70;99.20;;;;;;4999959;28;20041;-73
2020/12/05 11:15:30;;;;;;;26.65;13.90;;;8.60;99.50;;;;;;4994788;28;20041;-74
2020/12/05 11:17:56;;;;;;;28.80;14.70;;;8.20;99.90;;;;;;4996909;28;20034;-73
2020/12/05 11:20:22;;;;;;;26.60;13.80;;;8.00;99.90;;;;;;4994217;28;20088;-74
2020/12/05 11:22:49;;;;;;;26.80;14.15;;;7.60;99.90;;;;;;4993835;28;20895;-74
2020/12/05 11:25:15;;;;;;;27.85;14.18;;;7.60;99.90;;;;;;4999791;28;20034;-77
2020/12/05 11:27:41;;;;;;;26.63;14.38;;;7.50;99.90;;;;;;4999639;28;20399;-75
2020/12/05 11:30:07;;;;;;;28.08;13.85;;;7.60;99.90;;;;;;4998043;28;20038;-75
2020/12/05 11:32:32;;;;;;;28.45;14.52;;;7.90;99.90;;;;;;4992829;28;20042;-75
2020/12/05 11:34:58;;;;;;;25.83;13.40;;;8.00;99.90;;;;;;4997007;28;20211;-76
2020/12/05 11:37:24;;;;;;;26.05;14.15;;;8.20;99.90;;;;;;4998204;28;20040;-75
2020/12/05 11:39:49;;;;;;;28.73;15.00;;;8.00;99.90;;;;;;4998822;28;20784;-75
2020/12/05 11:42:15;;;;;;;29.65;15.20;;;7.80;99.90;;;;;;4999358;28;20037;-76
2020/12/05 11:44:41;;;;;;;29.55;14.70;;;7.70;99.90;;;;;;4994819;28;20034;-75
2020/12/05 11:47:07;;;;;;;29.40;16.02;;;7.40;99.90;;;;;;4997628;28;20022;-76
2020/12/05 11:49:32;;;;;;;28.02;14.63;;;7.30;99.90;;;;;;4998107;28;20042;-73
2020/12/05 11:51:58;;;;;;;28.58;14.70;;;7.30;99.90;;;;;;4998134;28;20124;-74
2020/12/05 11:54:24;;;;;;;27.50;13.95;;;7.30;99.90;;;;;;4998723;28;20037;-77
2020/12/05 11:56:50;;;;;;;26.67;14.20;;;7.40;99.90;;;;;;4998897;28;20055;-77
2020/12/05 11:59:16;;;;;;;38.95;14.50;;;7.60;99.90;;;;;;4993179;28;20495;-75
2020/12/05 12:01:42;;;;;;;29.23;14.23;;;7.90;99.90;;;;;;4994770;28;20294;-76
2020/12/05 12:04:08;;;;;;;29.10;13.68;;;8.20;99.90;;;;;;4994476;28;20038;-73
2020/12/05 12:06:34;;;;;;;26.27;14.18;;;8.60;99.90;;;;;;4992285;28;20064;-74
2020/12/05 12:09:00;;;;;;;28.05;13.77;;;9.20;98.60;;;;;;4980174;28;20425;-75
2020/12/05 12:11:26;;;;;;;22.70;12.85;;;9.40;98.10;;;;;;4998300;28;20030;-74
2020/12/05 12:13:51;;;;;;;28.48;13.60;;;9.50;97.70;;;;;;4989558;28;20147;-75
2020/12/05 12:16:17;;;;;;;26.95;14.57;;;9.40;97.70;;;;;;4991543;28;20037;-74
2020/12/05 12:18:43;;;;;;;30.67;14.52;;;9.10;97.70;;;;;;4996167;28;20069;-76
2020/12/05 12:21:09;;;;;;;29.88;14.80;;;8.60;99.20;;;;;;4998103;28;20103;-75
2020/12/05 12:23:35;;;;;;;32.10;15.57;;;8.30;99.50;;;;;;4992425;28;20026;-81
2020/12/05 12:26:01;;;;;;;31.60;15.48;;;8.30;99.90;;;;;;4996341;28;20034;-75
2020/12/05 12:28:27;;;;;;;27.98;15.00;;;8.30;99.90;;;;;;4998225;28;20034;-78
2020/12/05 12:30:53;;;;;;;28.75;15.90;;;8.20;99.90;;;;;;4989688;28;20034;-77
2020/12/05 12:33:19;;;;;;;29.35;14.95;;;8.00;99.90;;;;;;4998485;28;20899;-77
2020/12/05 12:35:45;;;;;;;28.52;14.63;;;8.00;99.90;;;;;;4998463;28;20603;-77
2020/12/05 12:38:11;;;;;;;29.92;15.30;;;7.90;99.90;;;;;;4980288;28;20041;-78
2020/12/05 12:40:37;;;;;;;29.80;15.38;;;7.80;99.90;;;;;;4996916;28;20025;-75
2020/12/05 12:43:03;;;;;;;31.05;15.05;;;7.80;99.90;;;;;;4992720;28;20034;-75
2020/12/05 12:45:30;;;;;;;30.90;15.48;;;7.70;99.90;;;;;;4990698;28;20565;-75